sensor_id;sensor_type;location;lat;lon;timestamp;P1;durP1;ratioP1;P2;durP2;ratioP2
43807;SDS011;29438;50.664;10.098;2023-04-29T00:01:21;14.57;;;6.03;;
43807;SDS011;29438;50.664;10.098;2023-04-29T00:03:47;13.70;;;6.03;;
43807;SDS011;29438;50.664;10.098;2023-04-29T00:06:13;15.23;;;5.85;;
43807;SDS011;29438;50.664;10.098;2023-04-29T00:08:39;13.77;;;5.97;;
43807;SDS011;29438;50.664;10.098;2023-04-29T00:11:04;14.10;;;6.18;;
43807;SDS011;29438;50.664;10.098;2023-04-29T00:13:30;13.32;;;5.95;;
43807;SDS011;29438;50.664;10.098;2023-04-29T00:15:55;16.02;;;6.03;;
43807;SDS011;29438;50.664;10.098;2023-04-29T00:18:21;14.27;;;6.13;;
43807;SDS011;29438;50.664;10.098;2023-04-29T00:20:46;14.88;;;6.30;;
43807;SDS011;29438;50.664;10.098;2023-04-29T00:23:12;14.35;;;6.20;;
43807;SDS011;29438;50.664;10.098;2023-04-29T00:25:37;13.45;;;6.40;;
43807;SDS011;29438;50.664;10.098;2023-04-29T00:28:03;15.48;;;6.25;;
43807;SDS011;29438;50.664;10.098;2023-04-29T00:30:30;14.40;;;6.35;;
43807;SDS011;29438;50.664;10.098;2023-04-29T00:32:56;13.93;;;6.10;;
43807;SDS011;29438;50.664;10.098;2023-04-29T00:35:22;12.45;;;5.70;;
43807;SDS011;29438;50.664;10.098;2023-04-29T00:37:47;11.52;;;5.15;;
43807;SDS011;29438;50.664;10.098;2023-04-29T00:40:13;11.40;;;5.28;;
43807;SDS011;29438;50.664;10.098;2023-04-29T00:42:39;11.27;;;5.35;;
43807;SDS011;29438;50.664;10.098;2023-04-29T00:45:05;14.30;;;5.45;;
43807;SDS011;29438;50.664;10.098;2023-04-29T00:47:31;12.73;;;5.25;;
43807;SDS011;29438;50.664;10.098;2023-04-29T00:49:57;10.85;;;5.13;;
43807;SDS011;29438;50.664;10.098;2023-04-29T00:52:22;11.95;;;5.25;;
43807;SDS011;29438;50.664;10.098;2023-04-29T00:54:48;12.85;;;5.55;;
43807;SDS011;29438;50.664;10.098;2023-04-29T00:57:16;14.38;;;5.95;;
43807;SDS011;29438;50.664;10.098;2023-04-29T00:59:43;15.23;;;6.30;;
43807;SDS011;29438;50.664;10.098;2023-04-29T01:02:09;13.38;;;5.93;;
43807;SDS011;29438;50.664;10.098;2023-04-29T01:04:35;14.65;;;5.75;;
43807;SDS011;29438;50.664;10.098;2023-04-29T01:07:13;12.65;;;5.95;;
43807;SDS011;29438;50.664;10.098;2023-04-29T01:15:19;15.90;;;6.65;;
43807;SDS011;29438;50.664;10.098;2023-04-29T01:17:49;14.98;;;6.00;;
43807;SDS011;29438;50.664;10.098;2023-04-29T01:20:27;12.68;;;5.50;;
43807;SDS011;29438;50.664;10.098;2023-04-29T01:22:55;13.50;;;5.55;;
43807;SDS011;29438;50.664;10.098;2023-04-29T01:25:20;13.88;;;6.18;;
43807;SDS011;29438;50.664;10.098;2023-04-29T01:28:07;12.95;;;5.63;;
43807;SDS011;29438;50.664;10.098;2023-04-29T01:30:52;13.45;;;6.35;;
43807;SDS011;29438;50.664;10.098;2023-04-29T01:36:28;12.95;;;5.78;;
43807;SDS011;29438;50.664;10.098;2023-04-29T01:39:26;14.27;;;5.88;;
43807;SDS011;29438;50.664;10.098;2023-04-29T01:41:56;14.70;;;6.55;;
43807;SDS011;29438;50.664;10.098;2023-04-29T01:44:39;14.80;;;6.25;;
43807;SDS011;29438;50.664;10.098;2023-04-29T01:47:06;14.25;;;6.15;;
43807;SDS011;29438;50.664;10.098;2023-04-29T01:49:37;14.43;;;6.30;;
43807;SDS011;29438;50.664;10.098;2023-04-29T01:52:03;12.70;;;5.60;;
43807;SDS011;29438;50.664;10.098;2023-04-29T01:54:29;11.32;;;5.32;;
43807;SDS011;29438;50.664;10.098;2023-04-29T01:56:55;12.10;;;5.35;;
43807;SDS011;29438;50.664;10.098;2023-04-29T01:59:22;13.68;;;6.18;;
43807;SDS011;29438;50.664;10.098;2023-04-29T02:01:47;11.25;;;5.43;;
43807;SDS011;29438;50.664;10.098;2023-04-29T02:04:13;12.98;;;6.07;;
43807;SDS011;29438;50.664;10.098;2023-04-29T02:06:39;11.98;;;5.55;;
43807;SDS011;29438;50.664;10.098;2023-04-29T02:09:04;13.55;;;5.82;;
43807;SDS011;29438;50.664;10.098;2023-04-29T02:11:30;13.00;;;5.85;;
43807;SDS011;29438;50.664;10.098;2023-04-29T02:13:55;12.65;;;5.65;;
43807;SDS011;29438;50.664;10.098;2023-04-29T02:16:21;13.43;;;6.22;;
43807;SDS011;29438;50.664;10.098;2023-04-29T02:18:46;14.25;;;6.28;;
43807;SDS011;29438;50.664;10.098;2023-04-29T02:21:12;16.92;;;6.20;;
43807;SDS011;29438;50.664;10.098;2023-04-29T02:23:37;16.17;;;6.60;;
43807;SDS011;29438;50.664;10.098;2023-04-29T02:26:03;15.05;;;6.68;;
43807;SDS011;29438;50.664;10.098;2023-04-29T02:28:33;15.05;;;6.40;;
43807;SDS011;29438;50.664;10.098;2023-04-29T02:30:58;14.50;;;6.57;;
43807;SDS011;29438;50.664;10.098;2023-04-29T02:33:24;16.48;;;7.18;;
43807;SDS011;29438;50.664;10.098;2023-04-29T02:35:50;18.30;;;6.95;;
43807;SDS011;29438;50.664;10.098;2023-04-29T02:38:15;16.95;;;7.53;;
43807;SDS011;29438;50.664;10.098;2023-04-29T02:40:41;16.27;;;6.70;;
43807;SDS011;29438;50.664;10.098;2023-04-29T02:43:08;15.20;;;6.60;;
43807;SDS011;29438;50.664;10.098;2023-04-29T02:45:33;18.10;;;7.15;;
43807;SDS011;29438;50.664;10.098;2023-04-29T02:48:00;14.63;;;6.65;;
43807;SDS011;29438;50.664;10.098;2023-04-29T02:50:25;16.13;;;7.13;;
43807;SDS011;29438;50.664;10.098;2023-04-29T02:52:51;16.52;;;7.30;;
43807;SDS011;29438;50.664;10.098;2023-04-29T02:55:16;17.45;;;7.13;;
43807;SDS011;29438;50.664;10.098;2023-04-29T02:57:42;17.90;;;7.55;;
43807;SDS011;29438;50.664;10.098;2023-04-29T03:00:08;18.38;;;7.75;;
43807;SDS011;29438;50.664;10.098;2023-04-29T03:02:35;18.77;;;7.90;;
43807;SDS011;29438;50.664;10.098;2023-04-29T03:05:01;17.30;;;7.75;;
43807;SDS011;29438;50.664;10.098;2023-04-29T03:07:27;19.95;;;8.38;;
43807;SDS011;29438;50.664;10.098;2023-04-29T03:09:53;18.20;;;8.32;;
43807;SDS011;29438;50.664;10.098;2023-04-29T03:12:19;19.20;;;8.57;;
43807;SDS011;29438;50.664;10.098;2023-04-29T03:14:45;18.48;;;8.38;;
43807;SDS011;29438;50.664;10.098;2023-04-29T03:17:11;19.15;;;8.70;;
43807;SDS011;29438;50.664;10.098;2023-04-29T03:19:37;18.60;;;8.32;;
43807;SDS011;29438;50.664;10.098;2023-04-29T03:22:02;19.80;;;8.70;;
43807;SDS011;29438;50.664;10.098;2023-04-29T03:24:28;18.25;;;7.85;;
43807;SDS011;29438;50.664;10.098;2023-04-29T03:26:53;21.63;;;8.98;;
43807;SDS011;29438;50.664;10.098;2023-04-29T03:29:19;20.00;;;8.68;;
43807;SDS011;29438;50.664;10.098;2023-04-29T03:31:44;19.23;;;8.23;;
43807;SDS011;29438;50.664;10.098;2023-04-29T03:34:10;19.42;;;9.20;;
43807;SDS011;29438;50.664;10.098;2023-04-29T03:36:38;17.95;;;7.93;;
43807;SDS011;29438;50.664;10.098;2023-04-29T03:39:04;19.35;;;8.57;;
43807;SDS011;29438;50.664;10.098;2023-04-29T03:41:29;19.45;;;8.30;;
43807;SDS011;29438;50.664;10.098;2023-04-29T03:43:55;19.45;;;8.10;;
43807;SDS011;29438;50.664;10.098;2023-04-29T03:46:24;22.08;;;9.15;;
43807;SDS011;29438;50.664;10.098;2023-04-29T03:48:50;22.05;;;8.15;;
43807;SDS011;29438;50.664;10.098;2023-04-29T03:51:16;19.38;;;8.25;;
43807;SDS011;29438;50.664;10.098;2023-04-29T03:53:42;18.05;;;7.57;;
43807;SDS011;29438;50.664;10.098;2023-04-29T03:56:08;20.33;;;8.85;;
43807;SDS011;29438;50.664;10.098;2023-04-29T03:58:33;20.00;;;8.25;;
43807;SDS011;29438;50.664;10.098;2023-04-29T04:00:59;20.65;;;8.10;;
43807;SDS011;29438;50.664;10.098;2023-04-29T04:03:24;17.98;;;7.45;;
43807;SDS011;29438;50.664;10.098;2023-04-29T04:05:52;17.80;;;7.18;;
43807;SDS011;29438;50.664;10.098;2023-04-29T04:08:17;18.05;;;7.28;;
43807;SDS011;29438;50.664;10.098;2023-04-29T04:10:43;16.80;;;7.28;;
43807;SDS011;29438;50.664;10.098;2023-04-29T04:13:08;16.15;;;7.05;;
43807;SDS011;29438;50.664;10.098;2023-04-29T04:15:34;18.58;;;7.28;;
43807;SDS011;29438;50.664;10.098;2023-04-29T04:17:59;18.10;;;7.43;;
43807;SDS011;29438;50.664;10.098;2023-04-29T04:20:25;15.57;;;6.80;;
43807;SDS011;29438;50.664;10.098;2023-04-29T04:22:51;18.58;;;6.80;;
43807;SDS011;29438;50.664;10.098;2023-04-29T04:25:18;14.45;;;6.57;;
43807;SDS011;29438;50.664;10.098;2023-04-29T04:27:44;16.80;;;6.95;;
43807;SDS011;29438;50.664;10.098;2023-04-29T04:30:09;17.17;;;7.40;;
43807;SDS011;29438;50.664;10.098;2023-04-29T04:32:35;14.07;;;6.35;;
43807;SDS011;29438;50.664;10.098;2023-04-29T04:35:03;14.38;;;6.57;;
43807;SDS011;29438;50.664;10.098;2023-04-29T04:37:28;13.32;;;6.13;;
43807;SDS011;29438;50.664;10.098;2023-04-29T04:39:54;16.08;;;6.85;;
43807;SDS011;29438;50.664;10.098;2023-04-29T04:42:21;13.32;;;6.13;;
43807;SDS011;29438;50.664;10.098;2023-04-29T04:44:47;14.88;;;7.00;;
43807;SDS011;29438;50.664;10.098;2023-04-29T04:47:12;15.88;;;6.45;;
43807;SDS011;29438;50.664;10.098;2023-04-29T04:49:38;18.63;;;7.45;;
43807;SDS011;29438;50.664;10.098;2023-04-29T04:52:03;15.32;;;6.68;;
43807;SDS011;29438;50.664;10.098;2023-04-29T04:54:29;15.95;;;6.05;;
43807;SDS011;29438;50.664;10.098;2023-04-29T04:56:54;15.02;;;6.80;;
43807;SDS011;29438;50.664;10.098;2023-04-29T04:59:20;14.68;;;6.10;;
43807;SDS011;29438;50.664;10.098;2023-04-29T05:01:45;12.13;;;5.20;;
43807;SDS011;29438;50.664;10.098;2023-04-29T05:04:11;12.27;;;4.30;;
43807;SDS011;29438;50.664;10.098;2023-04-29T05:06:37;8.68;;;3.65;;
43807;SDS011;29438;50.664;10.098;2023-04-29T05:09:02;6.80;;;3.00;;
43807;SDS011;29438;50.664;10.098;2023-04-29T05:11:28;4.68;;;1.83;;
43807;SDS011;29438;50.664;10.098;2023-04-29T05:13:53;3.28;;;1.17;;
43807;SDS011;29438;50.664;10.098;2023-04-29T05:16:19;2.97;;;1.00;;
43807;SDS011;29438;50.664;10.098;2023-04-29T05:18:44;3.33;;;1.23;;
43807;SDS011;29438;50.664;10.098;2023-04-29T05:21:10;4.10;;;0.73;;
43807;SDS011;29438;50.664;10.098;2023-04-29T05:23:36;3.10;;;1.10;;
43807;SDS011;29438;50.664;10.098;2023-04-29T05:26:02;4.55;;;0.98;;
43807;SDS011;29438;50.664;10.098;2023-04-29T05:28:28;2.80;;;1.08;;
43807;SDS011;29438;50.664;10.098;2023-04-29T05:30:53;2.17;;;0.60;;
43807;SDS011;29438;50.664;10.098;2023-04-29T05:33:19;2.47;;;0.70;;
43807;SDS011;29438;50.664;10.098;2023-04-29T05:35:44;2.53;;;0.80;;
43807;SDS011;29438;50.664;10.098;2023-04-29T05:38:10;3.03;;;1.08;;
43807;SDS011;29438;50.664;10.098;2023-04-29T05:40:35;2.88;;;1.35;;
43807;SDS011;29438;50.664;10.098;2023-04-29T05:43:02;3.92;;;1.45;;
43807;SDS011;29438;50.664;10.098;2023-04-29T05:45:27;4.22;;;1.70;;
43807;SDS011;29438;50.664;10.098;2023-04-29T05:47:53;4.15;;;1.58;;
43807;SDS011;29438;50.664;10.098;2023-04-29T05:50:18;4.72;;;2.00;;
43807;SDS011;29438;50.664;10.098;2023-04-29T05:52:44;3.90;;;1.65;;
43807;SDS011;29438;50.664;10.098;2023-04-29T05:55:09;3.70;;;1.55;;
43807;SDS011;29438;50.664;10.098;2023-04-29T05:57:35;4.97;;;1.70;;
43807;SDS011;29438;50.664;10.098;2023-04-29T06:00:01;3.45;;;1.60;;
43807;SDS011;29438;50.664;10.098;2023-04-29T06:02:27;3.28;;;1.27;;
43807;SDS011;29438;50.664;10.098;2023-04-29T06:04:53;4.38;;;1.73;;
43807;SDS011;29438;50.664;10.098;2023-04-29T06:07:18;3.42;;;1.38;;
43807;SDS011;29438;50.664;10.098;2023-04-29T06:09:44;4.47;;;1.70;;
43807;SDS011;29438;50.664;10.098;2023-04-29T06:12:10;3.28;;;1.35;;
43807;SDS011;29438;50.664;10.098;2023-04-29T06:14:35;7.55;;;3.17;;
43807;SDS011;29438;50.664;10.098;2023-04-29T06:17:01;7.53;;;3.10;;
43807;SDS011;29438;50.664;10.098;2023-04-29T06:19:27;8.85;;;3.83;;
43807;SDS011;29438;50.664;10.098;2023-04-29T06:21:53;7.35;;;3.42;;
43807;SDS011;29438;50.664;10.098;2023-04-29T06:24:18;8.65;;;3.83;;
43807;SDS011;29438;50.664;10.098;2023-04-29T06:26:44;7.68;;;3.47;;
43807;SDS011;29438;50.664;10.098;2023-04-29T06:29:09;6.75;;;3.08;;
43807;SDS011;29438;50.664;10.098;2023-04-29T06:31:35;7.90;;;3.28;;
43807;SDS011;29438;50.664;10.098;2023-04-29T06:34:01;8.32;;;3.40;;
43807;SDS011;29438;50.664;10.098;2023-04-29T06:36:26;8.40;;;3.45;;
43807;SDS011;29438;50.664;10.098;2023-04-29T06:38:52;8.85;;;3.97;;
43807;SDS011;29438;50.664;10.098;2023-04-29T06:41:17;8.20;;;3.53;;
43807;SDS011;29438;50.664;10.098;2023-04-29T06:43:43;8.82;;;3.72;;
43807;SDS011;29438;50.664;10.098;2023-04-29T06:46:08;7.82;;;3.67;;
43807;SDS011;29438;50.664;10.098;2023-04-29T06:48:34;9.75;;;3.90;;
43807;SDS011;29438;50.664;10.098;2023-04-29T06:51:00;10.60;;;3.85;;
43807;SDS011;29438;50.664;10.098;2023-04-29T06:53:26;9.43;;;3.85;;
43807;SDS011;29438;50.664;10.098;2023-04-29T06:55:52;9.43;;;3.83;;
43807;SDS011;29438;50.664;10.098;2023-04-29T06:58:18;8.15;;;3.83;;
43807;SDS011;29438;50.664;10.098;2023-04-29T07:00:48;7.80;;;3.50;;
43807;SDS011;29438;50.664;10.098;2023-04-29T07:03:14;8.82;;;3.35;;
43807;SDS011;29438;50.664;10.098;2023-04-29T07:05:41;7.55;;;3.58;;
43807;SDS011;29438;50.664;10.098;2023-04-29T07:08:09;6.60;;;3.00;;
43807;SDS011;29438;50.664;10.098;2023-04-29T07:10:36;5.90;;;2.47;;
43807;SDS011;29438;50.664;10.098;2023-04-29T07:13:01;5.22;;;2.38;;
43807;SDS011;29438;50.664;10.098;2023-04-29T07:15:27;5.93;;;2.60;;
43807;SDS011;29438;50.664;10.098;2023-04-29T07:17:54;6.88;;;3.10;;
43807;SDS011;29438;50.664;10.098;2023-04-29T07:20:20;6.75;;;2.95;;
43807;SDS011;29438;50.664;10.098;2023-04-29T07:22:46;7.43;;;2.90;;
43807;SDS011;29438;50.664;10.098;2023-04-29T07:25:11;11.02;;;2.92;;
43807;SDS011;29438;50.664;10.098;2023-04-29T07:27:37;7.63;;;3.15;;
43807;SDS011;29438;50.664;10.098;2023-04-29T07:30:03;8.30;;;3.33;;
43807;SDS011;29438;50.664;10.098;2023-04-29T07:32:29;6.78;;;3.05;;
43807;SDS011;29438;50.664;10.098;2023-04-29T07:34:55;8.10;;;3.30;;
43807;SDS011;29438;50.664;10.098;2023-04-29T07:37:21;6.93;;;2.97;;
43807;SDS011;29438;50.664;10.098;2023-04-29T07:39:47;8.30;;;3.22;;
43807;SDS011;29438;50.664;10.098;2023-04-29T07:42:12;6.13;;;2.88;;
43807;SDS011;29438;50.664;10.098;2023-04-29T07:44:38;7.07;;;3.05;;
43807;SDS011;29438;50.664;10.098;2023-04-29T07:47:03;5.32;;;2.63;;
43807;SDS011;29438;50.664;10.098;2023-04-29T07:49:29;4.72;;;0.88;;
43807;SDS011;29438;50.664;10.098;2023-04-29T07:51:55;2.72;;;0.93;;
43807;SDS011;29438;50.664;10.098;2023-04-29T07:54:21;4.03;;;1.40;;
43807;SDS011;29438;50.664;10.098;2023-04-29T07:56:47;2.63;;;0.90;;
43807;SDS011;29438;50.664;10.098;2023-04-29T07:59:13;3.92;;;1.23;;
43807;SDS011;29438;50.664;10.098;2023-04-29T08:01:41;3.35;;;1.15;;
43807;SDS011;29438;50.664;10.098;2023-04-29T08:04:07;3.03;;;1.23;;
43807;SDS011;29438;50.664;10.098;2023-04-29T08:06:33;3.40;;;1.35;;
43807;SDS011;29438;50.664;10.098;2023-04-29T08:08:59;4.82;;;1.80;;
43807;SDS011;29438;50.664;10.098;2023-04-29T08:11:25;4.35;;;1.60;;
43807;SDS011;29438;50.664;10.098;2023-04-29T08:13:51;4.28;;;1.63;;
43807;SDS011;29438;50.664;10.098;2023-04-29T08:16:17;3.38;;;1.50;;
43807;SDS011;29438;50.664;10.098;2023-04-29T08:18:43;4.05;;;1.70;;
43807;SDS011;29438;50.664;10.098;2023-04-29T08:21:08;4.13;;;2.00;;
43807;SDS011;29438;50.664;10.098;2023-04-29T08:23:36;3.95;;;1.83;;
43807;SDS011;29438;50.664;10.098;2023-04-29T08:26:02;4.35;;;1.67;;
43807;SDS011;29438;50.664;10.098;2023-04-29T08:28:28;3.95;;;1.80;;
43807;SDS011;29438;50.664;10.098;2023-04-29T08:30:53;4.00;;;1.67;;
43807;SDS011;29438;50.664;10.098;2023-04-29T08:33:19;4.22;;;1.80;;
43807;SDS011;29438;50.664;10.098;2023-04-29T08:35:45;4.40;;;2.10;;
43807;SDS011;29438;50.664;10.098;2023-04-29T08:38:10;4.55;;;1.75;;
43807;SDS011;29438;50.664;10.098;2023-04-29T08:40:42;4.22;;;1.52;;
43807;SDS011;29438;50.664;10.098;2023-04-29T08:43:11;4.47;;;1.73;;
43807;SDS011;29438;50.664;10.098;2023-04-29T08:45:38;5.28;;;1.52;;
43807;SDS011;29438;50.664;10.098;2023-04-29T08:48:05;6.40;;;2.03;;
43807;SDS011;29438;50.664;10.098;2023-04-29T08:50:31;4.80;;;1.92;;
43807;SDS011;29438;50.664;10.098;2023-04-29T08:53:03;3.65;;;1.60;;
43807;SDS011;29438;50.664;10.098;2023-04-29T08:55:32;4.38;;;1.73;;
43807;SDS011;29438;50.664;10.098;2023-04-29T08:57:59;5.53;;;2.15;;
43807;SDS011;29438;50.664;10.098;2023-04-29T09:00:27;6.25;;;2.63;;
43807;SDS011;29438;50.664;10.098;2023-04-29T09:02:55;4.60;;;2.08;;
43807;SDS011;29438;50.664;10.098;2023-04-29T09:05:22;5.43;;;2.22;;
43807;SDS011;29438;50.664;10.098;2023-04-29T09:07:49;5.15;;;2.13;;
43807;SDS011;29438;50.664;10.098;2023-04-29T09:10:16;6.95;;;2.47;;
43807;SDS011;29438;50.664;10.098;2023-04-29T09:12:42;5.82;;;2.45;;
43807;SDS011;29438;50.664;10.098;2023-04-29T09:15:08;5.78;;;2.13;;
43807;SDS011;29438;50.664;10.098;2023-04-29T09:22:51;5.05;;;2.30;;
43807;SDS011;29438;50.664;10.098;2023-04-29T09:25:18;5.03;;;2.20;;
43807;SDS011;29438;50.664;10.098;2023-04-29T09:27:44;4.43;;;1.92;;
43807;SDS011;29438;50.664;10.098;2023-04-29T09:30:10;4.85;;;1.85;;
43807;SDS011;29438;50.664;10.098;2023-04-29T09:32:37;4.72;;;1.95;;
43807;SDS011;29438;50.664;10.098;2023-04-29T09:35:22;4.20;;;1.85;;
43807;SDS011;29438;50.664;10.098;2023-04-29T09:37:49;4.00;;;1.88;;
43807;SDS011;29438;50.664;10.098;2023-04-29T09:40:30;3.67;;;1.63;;
43807;SDS011;29438;50.664;10.098;2023-04-29T09:42:57;4.00;;;1.55;;
43807;SDS011;29438;50.664;10.098;2023-04-29T09:48:02;4.18;;;1.80;;
43807;SDS011;29438;50.664;10.098;2023-04-29T09:50:28;4.15;;;2.08;;
43807;SDS011;29438;50.664;10.098;2023-04-29T09:52:54;3.55;;;1.70;;
43807;SDS011;29438;50.664;10.098;2023-04-29T09:55:20;4.57;;;2.00;;
43807;SDS011;29438;50.664;10.098;2023-04-29T09:57:45;4.93;;;1.75;;
43807;SDS011;29438;50.664;10.098;2023-04-29T10:00:12;5.38;;;2.50;;
43807;SDS011;29438;50.664;10.098;2023-04-29T10:02:40;6.90;;;2.90;;
43807;SDS011;29438;50.664;10.098;2023-04-29T10:05:06;6.35;;;2.80;;
43807;SDS011;29438;50.664;10.098;2023-04-29T10:07:34;7.80;;;3.22;;
43807;SDS011;29438;50.664;10.098;2023-04-29T10:10:03;6.82;;;3.30;;
43807;SDS011;29438;50.664;10.098;2023-04-29T10:12:30;8.60;;;3.50;;
43807;SDS011;29438;50.664;10.098;2023-04-29T10:15:03;7.72;;;3.50;;
43807;SDS011;29438;50.664;10.098;2023-04-29T10:17:42;6.13;;;3.20;;
43807;SDS011;29438;50.664;10.098;2023-04-29T10:20:14;5.68;;;2.63;;
43807;SDS011;29438;50.664;10.098;2023-04-29T10:22:51;5.40;;;2.80;;
43807;SDS011;29438;50.664;10.098;2023-04-29T10:25:19;6.28;;;3.10;;
43807;SDS011;29438;50.664;10.098;2023-04-29T10:27:46;5.38;;;2.97;;
43807;SDS011;29438;50.664;10.098;2023-04-29T10:30:13;6.25;;;3.13;;
43807;SDS011;29438;50.664;10.098;2023-04-29T10:32:40;5.85;;;2.90;;
43807;SDS011;29438;50.664;10.098;2023-04-29T10:35:10;5.93;;;3.10;;
43807;SDS011;29438;50.664;10.098;2023-04-29T10:37:40;5.57;;;2.80;;
43807;SDS011;29438;50.664;10.098;2023-04-29T10:42:43;6.38;;;3.22;;
43807;SDS011;29438;50.664;10.098;2023-04-29T10:45:17;5.50;;;2.72;;
43807;SDS011;29438;50.664;10.098;2023-04-29T10:53:12;6.28;;;2.88;;
43807;SDS011;29438;50.664;10.098;2023-04-29T10:55:45;7.03;;;3.30;;
43807;SDS011;29438;50.664;10.098;2023-04-29T11:01:03;7.47;;;3.45;;
43807;SDS011;29438;50.664;10.098;2023-04-29T11:06:19;6.30;;;3.10;;
43807;SDS011;29438;50.664;10.098;2023-04-29T11:09:02;5.55;;;2.80;;
43807;SDS011;29438;50.664;10.098;2023-04-29T11:14:25;7.60;;;3.08;;
43807;SDS011;29438;50.664;10.098;2023-04-29T11:16:58;5.38;;;2.75;;
43807;SDS011;29438;50.664;10.098;2023-04-29T11:19:41;6.35;;;3.20;;
43807;SDS011;29438;50.664;10.098;2023-04-29T11:24:50;5.95;;;2.97;;
43807;SDS011;29438;50.664;10.098;2023-04-29T11:27:18;6.70;;;3.00;;
43807;SDS011;29438;50.664;10.098;2023-04-29T11:29:46;8.20;;;3.30;;
43807;SDS011;29438;50.664;10.098;2023-04-29T11:32:14;6.45;;;2.80;;
43807;SDS011;29438;50.664;10.098;2023-04-29T11:34:39;6.05;;;3.35;;
43807;SDS011;29438;50.664;10.098;2023-04-29T11:37:05;7.05;;;3.40;;
43807;SDS011;29438;50.664;10.098;2023-04-29T11:39:34;6.13;;;3.22;;
43807;SDS011;29438;50.664;10.098;2023-04-29T11:42:06;7.03;;;3.78;;
43807;SDS011;29438;50.664;10.098;2023-04-29T11:44:32;7.22;;;3.55;;
43807;SDS011;29438;50.664;10.098;2023-04-29T11:47:03;6.55;;;3.38;;
43807;SDS011;29438;50.664;10.098;2023-04-29T11:49:33;6.80;;;3.38;;
43807;SDS011;29438;50.664;10.098;2023-04-29T11:51:59;7.18;;;3.28;;
43807;SDS011;29438;50.664;10.098;2023-04-29T11:54:25;7.82;;;3.72;;
43807;SDS011;29438;50.664;10.098;2023-04-29T11:56:55;8.73;;;3.90;;
43807;SDS011;29438;50.664;10.098;2023-04-29T11:59:22;7.30;;;3.55;;
43807;SDS011;29438;50.664;10.098;2023-04-29T12:01:48;10.32;;;3.80;;
43807;SDS011;29438;50.664;10.098;2023-04-29T12:04:14;6.50;;;3.42;;
43807;SDS011;29438;50.664;10.098;2023-04-29T12:06:40;13.18;;;3.45;;
43807;SDS011;29438;50.664;10.098;2023-04-29T12:09:06;7.22;;;3.83;;
43807;SDS011;29438;50.664;10.098;2023-04-29T12:11:32;7.55;;;3.58;;
43807;SDS011;29438;50.664;10.098;2023-04-29T12:13:58;7.90;;;3.83;;
43807;SDS011;29438;50.664;10.098;2023-04-29T12:16:26;7.65;;;4.10;;
43807;SDS011;29438;50.664;10.098;2023-04-29T12:18:53;7.63;;;3.72;;
43807;SDS011;29438;50.664;10.098;2023-04-29T12:21:20;8.85;;;4.28;;
43807;SDS011;29438;50.664;10.098;2023-04-29T12:23:46;7.93;;;4.07;;
43807;SDS011;29438;50.664;10.098;2023-04-29T12:26:12;10.27;;;3.90;;
43807;SDS011;29438;50.664;10.098;2023-04-29T12:28:39;10.48;;;4.30;;
43807;SDS011;29438;50.664;10.098;2023-04-29T12:31:07;7.80;;;3.90;;
43807;SDS011;29438;50.664;10.098;2023-04-29T12:33:33;7.22;;;3.55;;
43807;SDS011;29438;50.664;10.098;2023-04-29T12:35:59;8.55;;;3.47;;
43807;SDS011;29438;50.664;10.098;2023-04-29T12:38:25;10.20;;;4.13;;
43807;SDS011;29438;50.664;10.098;2023-04-29T12:40:52;6.50;;;3.33;;
43807;SDS011;29438;50.664;10.098;2023-04-29T12:43:19;8.02;;;4.03;;
43807;SDS011;29438;50.664;10.098;2023-04-29T12:45:51;10.13;;;4.40;;
43807;SDS011;29438;50.664;10.098;2023-04-29T12:48:28;8.20;;;4.50;;
43807;SDS011;29438;50.664;10.098;2023-04-29T12:50:55;11.07;;;3.90;;
43807;SDS011;29438;50.664;10.098;2023-04-29T12:53:23;9.02;;;4.68;;
43807;SDS011;29438;50.664;10.098;2023-04-29T12:55:56;7.90;;;4.13;;
43807;SDS011;29438;50.664;10.098;2023-04-29T12:58:21;8.68;;;4.10;;
43807;SDS011;29438;50.664;10.098;2023-04-29T13:00:47;8.55;;;4.45;;
43807;SDS011;29438;50.664;10.098;2023-04-29T13:03:13;10.23;;;5.07;;
43807;SDS011;29438;50.664;10.098;2023-04-29T13:05:38;9.85;;;4.82;;
43807;SDS011;29438;50.664;10.098;2023-04-29T13:08:04;9.23;;;4.60;;
43807;SDS011;29438;50.664;10.098;2023-04-29T13:10:30;8.48;;;4.28;;
43807;SDS011;29438;50.664;10.098;2023-04-29T13:12:57;8.95;;;4.90;;
43807;SDS011;29438;50.664;10.098;2023-04-29T13:15:23;10.10;;;4.80;;
43807;SDS011;29438;50.664;10.098;2023-04-29T13:17:49;11.48;;;5.03;;
43807;SDS011;29438;50.664;10.098;2023-04-29T13:20:15;11.43;;;4.75;;
43807;SDS011;29438;50.664;10.098;2023-04-29T13:22:41;12.45;;;5.82;;
43807;SDS011;29438;50.664;10.098;2023-04-29T13:25:08;10.35;;;4.90;;
43807;SDS011;29438;50.664;10.098;2023-04-29T13:27:38;12.88;;;5.55;;
43807;SDS011;29438;50.664;10.098;2023-04-29T13:30:04;11.88;;;6.05;;
43807;SDS011;29438;50.664;10.098;2023-04-29T13:32:31;9.68;;;5.20;;
43807;SDS011;29438;50.664;10.098;2023-04-29T13:34:57;13.05;;;6.07;;
43807;SDS011;29438;50.664;10.098;2023-04-29T13:37:22;14.07;;;6.95;;
43807;SDS011;29438;50.664;10.098;2023-04-29T13:39:47;13.63;;;6.47;;
43807;SDS011;29438;50.664;10.098;2023-04-29T13:42:13;12.43;;;6.65;;
43807;SDS011;29438;50.664;10.098;2023-04-29T13:44:39;15.95;;;6.72;;
43807;SDS011;29438;50.664;10.098;2023-04-29T13:47:08;15.13;;;7.03;;
43807;SDS011;29438;50.664;10.098;2023-04-29T13:49:38;15.02;;;7.75;;
43807;SDS011;29438;50.664;10.098;2023-04-29T13:52:04;13.43;;;7.00;;
43807;SDS011;29438;50.664;10.098;2023-04-29T13:54:30;13.52;;;7.13;;
43807;SDS011;29438;50.664;10.098;2023-04-29T13:56:56;14.45;;;7.32;;
43807;SDS011;29438;50.664;10.098;2023-04-29T13:59:21;14.27;;;7.05;;
43807;SDS011;29438;50.664;10.098;2023-04-29T14:01:46;14.07;;;7.22;;
43807;SDS011;29438;50.664;10.098;2023-04-29T14:04:12;13.60;;;7.13;;
43807;SDS011;29438;50.664;10.098;2023-04-29T14:06:38;15.52;;;7.38;;
43807;SDS011;29438;50.664;10.098;2023-04-29T14:09:03;16.55;;;7.20;;
43807;SDS011;29438;50.664;10.098;2023-04-29T14:11:29;11.80;;;5.85;;
43807;SDS011;29438;50.664;10.098;2023-04-29T14:13:54;12.45;;;6.00;;
43807;SDS011;29438;50.664;10.098;2023-04-29T14:16:20;13.10;;;6.63;;
43807;SDS011;29438;50.664;10.098;2023-04-29T14:18:45;13.57;;;7.45;;
43807;SDS011;29438;50.664;10.098;2023-04-29T14:21:11;14.15;;;6.97;;
43807;SDS011;29438;50.664;10.098;2023-04-29T14:23:36;14.50;;;7.07;;
43807;SDS011;29438;50.664;10.098;2023-04-29T14:26:02;14.48;;;6.97;;
43807;SDS011;29438;50.664;10.098;2023-04-29T14:28:28;14.13;;;7.20;;
43807;SDS011;29438;50.664;10.098;2023-04-29T14:30:53;13.63;;;7.22;;
43807;SDS011;29438;50.664;10.098;2023-04-29T14:33:19;14.70;;;6.80;;
43807;SDS011;29438;50.664;10.098;2023-04-29T14:35:45;11.73;;;6.22;;
43807;SDS011;29438;50.664;10.098;2023-04-29T14:38:10;13.40;;;6.80;;
43807;SDS011;29438;50.664;10.098;2023-04-29T14:40:36;14.73;;;7.13;;
43807;SDS011;29438;50.664;10.098;2023-04-29T14:43:03;14.15;;;6.80;;
43807;SDS011;29438;50.664;10.098;2023-04-29T14:45:28;12.35;;;6.60;;
43807;SDS011;29438;50.664;10.098;2023-04-29T14:47:54;14.93;;;7.18;;
43807;SDS011;29438;50.664;10.098;2023-04-29T14:50:19;13.88;;;6.30;;
43807;SDS011;29438;50.664;10.098;2023-04-29T14:52:47;11.93;;;6.30;;
43807;SDS011;29438;50.664;10.098;2023-04-29T14:55:12;12.48;;;6.53;;
43807;SDS011;29438;50.664;10.098;2023-04-29T14:57:38;11.13;;;5.97;;
43807;SDS011;29438;50.664;10.098;2023-04-29T15:00:03;12.50;;;6.60;;
43807;SDS011;29438;50.664;10.098;2023-04-29T15:02:31;10.75;;;6.00;;